Portada
METAR-TAF:

METAR-TAF

Aeropuertos :

Aeropuerto Internacional de Pekín-Capital

Pekín, China

latitud: 39-56N, longitud: 116-17E, altitud: 55 m

Observación

El informe se hizo hace 27 minutos, a las 06:30 UTC
Viento 14 kt del oeste, variando entre oeste y noroeste
Temperatura 12°C
Humedad 17%
Presión 1024 hPa
Visibilidad 10 km o más
sin nubes por debajo de 1500 m y sin presencia de cumulonimbus.

METAR: ZBAA 210630Z 28007MPS 260V320 CAVOK 12/M12 Q1024 NOSIG

Hora: 14:57 (06:57 UTC)

Pronóstico

El informe se hizo hace 3 horas y 57 minutos, a las 03:00 UTC
Pronóstico válido del 21 a las 06 UTC al 22 a las 06 UTC
Viento 8 kt del norte-noroeste
Visibilidad: 3500 m
neblina
Evolucionando progresivamente
del 21 a las 11 UTC al 21 a las 12 UTC
Viento 17 kt del norte-noroeste con ráfagas de 35 kt

TAF: ZBAA 210300Z 2106/2206 33004MPS 3500 BR NSC TX08/2107Z TNM02/2121Z BECMG 2111/2112 33009G18MPS

Observaciones y pronósticos meteorológicos de más de 4000 aeropuertos (mensajes METAR y TAF).

Los puntos amarillos y rojos representan las estaciones disponibles.

Ponga el ratón en el punto deseado para ver el nombre de la estación.

Haga clic para ver las observaciones y los pronósticos meteorológicos.

Para cambiar el mapa : haga clic en los botones verdes con una cruz de color negro para hacer un zoom, en el botón verde con un guión para alejar o en las flechas verdes para mapas adyacentes.


METAR-TAF: